Time;durP1;ratioP1;P1;durP2;ratioP2;P2;SDS_P1;SDS_P2;PMS_P1;PMS_P2;Temp;Humidity;BMP_temperature;BMP_pressure;BME280_temperature;BME280_humidity;BME280_pressure;Samples;Min_cycle;Max_cycle;Signal;HPM_P1;HPM_P2
2021/03/31 00:00:00;;;;;;;7.55;4.90;;;;;;;22.12;47.72;102093.98;1688186;83;21210;-57
2021/03/31 00:02:26;;;;;;;9.55;4.75;;;;;;;22.13;47.71;102090.09;1688622;83;21574;-57
2021/03/31 00:04:53;;;;;;;7.90;4.92;;;;;;;22.13;47.67;102090.09;1688752;83;21218;-57
2021/03/31 00:07:20;;;;;;;7.05;4.80;;;;;;;22.13;47.64;102084.00;1688919;83;21387;-57
2021/03/31 00:09:46;;;;;;;6.95;4.75;;;;;;;22.15;47.63;102082.33;1691578;83;21195;-57
2021/03/31 00:12:13;;;;;;;7.97;5.17;;;;;;;22.15;47.58;102080.94;1693648;83;21187;-57
2021/03/31 00:14:40;;;;;;;6.90;4.92;;;;;;;22.15;47.56;102083.12;1691911;83;21283;-57
2021/03/31 00:17:06;;;;;;;6.00;4.30;;;;;;;22.15;47.52;102072.03;1695543;83;21146;-57
2021/03/31 00:19:33;;;;;;;5.70;4.35;;;;;;;22.16;47.49;102073.69;1691197;83;21138;-57
2021/03/31 00:22:00;;;;;;;6.65;4.65;;;;;;;22.17;47.47;102080.06;1688479;83;21207;-57
2021/03/31 00:24:26;;;;;;;6.40;4.42;;;;;;;22.18;47.46;102070.63;1696402;83;21570;-57
2021/03/31 00:26:53;;;;;;;6.62;4.80;;;;;;;22.18;47.41;102067.86;1692467;83;22279;-57
2021/03/31 00:29:20;;;;;;;7.08;4.72;;;;;;;22.18;47.40;102070.08;1689016;83;21208;-57
2021/03/31 00:31:46;;;;;;;7.22;5.25;;;;;;;22.19;47.39;102070.91;1692706;83;21229;-56
2021/03/31 00:34:13;;;;;;;6.90;4.10;;;;;;;22.19;47.34;102075.86;1661602;84;21156;-57
2021/03/31 00:36:40;;;;;;;7.40;4.22;;;;;;;22.20;47.32;102074.74;1688563;83;21564;-57
2021/03/31 00:39:08;;;;;;;5.95;4.45;;;;;;;22.20;47.28;102073.36;1690641;83;21563;-57
2021/03/31 00:41:34;;;;;;;6.25;4.55;;;;;;;22.20;47.27;102073.91;1690725;83;21235;-57
2021/03/31 00:44:01;;;;;;;7.20;4.47;;;;;;;22.20;47.25;102070.58;1689213;83;21210;-57
2021/03/31 00:46:28;;;;;;;5.97;4.17;;;;;;;22.22;47.22;102077.23;1688967;83;21332;-57
2021/03/31 00:48:54;;;;;;;6.78;4.45;;;;;;;22.21;47.19;102070.03;1694747;83;21249;-57
2021/03/31 00:51:21;;;;;;;7.65;4.65;;;;;;;22.22;47.17;102066.14;1699877;82;21642;-57
2021/03/31 00:53:48;;;;;;;7.90;4.62;;;;;;;22.22;47.13;102070.30;1700977;82;21149;-57
2021/03/31 00:56:14;;;;;;;7.22;4.47;;;;;;;22.22;47.12;102064.20;1697181;82;21157;-57
2021/03/31 00:58:41;;;;;;;6.70;5.00;;;;;;;22.23;47.09;102070.02;1705416;82;21208;-57
2021/03/31 01:01:09;;;;;;;7.90;4.60;;;;;;;22.24;47.06;102070.80;1708987;82;21172;-57
2021/03/31 01:03:36;;;;;;;5.95;4.25;;;;;;;22.23;47.06;102067.80;1704319;82;21206;-57
2021/03/31 01:06:05;;;;;;;5.87;4.35;;;;;;;22.23;47.03;102070.56;1706677;82;21090;-57
2021/03/31 01:08:31;;;;;;;6.62;4.55;;;;;;;22.24;46.99;102073.02;1700202;82;21146;-57
2021/03/31 01:10:58;;;;;;;6.08;4.53;;;;;;;22.24;46.99;102068.03;1672847;83;21216;-57
2021/03/31 01:13:58;;;;;;;5.65;4.25;;;;;;;22.25;46.95;102066.92;1708131;82;21206;-57
2021/03/31 01:16:50;;;;;;;6.12;4.42;;;;;;;22.26;46.94;102069.96;1700010;82;21428;-57
2021/03/31 01:19:51;;;;;;;6.30;4.45;;;;;;;22.25;46.88;102066.92;1670428;84;21193;-57
2021/03/31 01:23:07;;;;;;;5.35;4.40;;;;;;;22.25;46.87;102068.30;1701325;82;21541;-58
2021/03/31 01:25:40;;;;;;;6.45;4.22;;;;;;;22.24;46.85;102068.86;1701624;83;21574;-57
2021/03/31 01:28:46;;;;;;;6.42;4.70;;;;;;;22.22;46.80;102071.13;1699441;83;21203;-59
2021/03/31 01:31:39;;;;;;;5.42;4.42;;;;;;;22.23;46.80;102070.56;1715446;81;21633;-58
2021/03/31 01:34:36;;;;;;;5.92;4.20;;;;;;;22.23;46.80;102070.56;1720728;81;21154;-58
2021/03/31 01:37:11;;;;;;;6.83;4.37;;;;;;;22.23;46.77;102069.18;1715814;81;21133;-58
2021/03/31 01:39:38;;;;;;;5.83;4.45;;;;;;;22.22;46.78;102060.59;1717134;81;21164;-58
2021/03/31 01:42:07;;;;;;;6.67;4.60;;;;;;;22.22;46.75;102060.04;1687589;82;21215;-58
2021/03/31 01:44:34;;;;;;;7.78;4.87;;;;;;;22.22;46.77;102066.14;1675388;83;21287;-58
2021/03/31 01:47:01;;;;;;;6.65;4.70;;;;;;;22.22;46.76;102066.14;1701546;82;21161;-58
2021/03/31 01:49:27;;;;;;;7.87;4.95;;;;;;;22.22;46.77;102064.20;1672871;83;21244;-58
2021/03/31 01:52:00;;;;;;;6.92;4.58;;;;;;;22.23;46.77;102065.85;1712884;81;21180;-58
2021/03/31 01:54:27;;;;;;;6.60;4.87;;;;;;;22.24;46.75;102070.80;1710053;82;21301;-57
2021/03/31 01:56:54;;;;;;;5.75;4.05;;;;;;;22.24;46.76;102060.55;1715511;82;21568;-58
2021/03/31 01:59:21;;;;;;;6.10;4.60;;;;;;;22.24;46.74;102060.55;1709058;82;21165;-58
2021/03/31 02:01:51;;;;;;;6.40;4.70;;;;;;;22.25;46.74;102058.60;1715875;81;21260;-58
2021/03/31 02:04:18;;;;;;;6.35;4.80;;;;;;;22.24;46.74;102060.55;1728001;81;21647;-58
2021/03/31 02:06:45;;;;;;;6.45;4.90;;;;;;;22.24;46.71;102060.55;1728748;81;21244;-58
2021/03/31 02:09:11;;;;;;;6.50;4.55;;;;;;;22.25;46.71;102055.83;1728925;81;21254;-57
2021/03/31 02:11:38;;;;;;;6.92;4.67;;;;;;;22.25;46.70;102060.81;1727172;81;21602;-57
2021/03/31 02:14:06;;;;;;;8.13;4.95;;;;;;;22.25;46.69;102056.66;1726497;81;21145;-57
2021/03/31 02:16:33;;;;;;;6.62;4.60;;;;;;;22.25;46.68;102051.67;1704975;81;21154;-58
2021/03/31 02:19:00;;;;;;;7.35;4.80;;;;;;;22.25;46.68;102057.22;1712789;82;21186;-57
2021/03/31 02:21:26;;;;;;;8.83;4.45;;;;;;;22.25;46.67;102058.60;1707771;82;22268;-57
2021/03/31 02:23:53;;;;;;;6.40;4.80;;;;;;;22.25;46.64;102054.45;1712377;82;21161;-61
2021/03/31 02:26:20;;;;;;;6.83;5.20;;;;;;;22.24;46.64;102055.56;1709700;82;21228;-57
2021/03/31 02:28:47;;;;;;;7.83;5.37;;;;;;;22.24;46.64;102054.17;1705002;82;21216;-57
2021/03/31 02:31:17;;;;;;;9.05;5.40;;;;;;;22.23;46.65;102045.06;1709784;82;21329;-57
2021/03/31 02:33:44;;;;;;;6.92;5.28;;;;;;;22.22;46.64;102046.17;1694723;81;22414;-58
2021/03/31 02:36:13;;;;;;;6.87;5.10;;;;;;;22.23;46.65;102046.45;1721296;81;21267;-58
2021/03/31 02:38:42;;;;;;;6.72;5.05;;;;;;;22.22;46.64;102047.56;1718434;81;21181;-58
2021/03/31 02:41:10;;;;;;;7.80;4.90;;;;;;;22.22;46.65;102046.73;1705974;82;21273;-58
2021/03/31 02:43:41;;;;;;;7.87;5.58;;;;;;;22.21;46.65;102051.45;1707389;81;21180;-58
2021/03/31 02:46:08;;;;;;;8.43;5.55;;;;;;;22.22;46.67;102050.89;1720557;82;21277;-58
2021/03/31 02:48:34;;;;;;;6.75;4.97;;;;;;;22.21;46.67;102047.85;1701256;82;21518;-58
2021/03/31 02:51:01;;;;;;;7.75;5.12;;;;;;;22.20;46.68;102047.02;1707288;82;21190;-58
2021/03/31 02:53:28;;;;;;;7.72;5.22;;;;;;;22.20;46.68;102045.64;1701586;82;21217;-58
2021/03/31 02:55:55;;;;;;;7.78;5.30;;;;;;;22.20;46.70;102043.42;1701715;82;21577;-58
2021/03/31 02:58:22;;;;;;;7.15;4.90;;;;;;;22.19;46.71;102041.80;1700265;81;21189;-58
2021/03/31 03:00:48;;;;;;;8.03;5.67;;;;;;;22.18;46.72;102043.73;1704354;81;21157;-58
2021/03/31 03:03:15;;;;;;;7.95;5.12;;;;;;;22.18;46.74;102045.69;1697025;82;21295;-58
2021/03/31 03:05:41;;;;;;;6.95;5.00;;;;;;;22.18;46.74;102047.90;1697356;82;21171;-58
2021/03/31 03:08:08;;;;;;;9.35;5.05;;;;;;;22.18;46.74;102041.52;1697837;82;21528;-58
2021/03/31 03:10:35;;;;;;;8.55;5.35;;;;;;;22.17;46.74;102049.02;1698103;81;21620;-58
2021/03/31 03:13:02;;;;;;;7.33;5.47;;;;;;;22.17;46.74;102049.57;1714348;81;21141;-58
2021/03/31 03:15:29;;;;;;;7.60;5.37;;;;;;;22.17;46.75;102050.95;1698103;82;21434;-57
2021/03/31 03:17:56;;;;;;;8.50;4.85;;;;;;;22.16;46.77;102045.97;1696512;82;21217;-58
2021/03/31 03:20:24;;;;;;;7.83;5.03;;;;;;;22.16;46.77;102057.61;1696385;82;21181;-58
2021/03/31 03:22:53;;;;;;;7.97;5.10;;;;;;;22.16;46.77;102052.07;1707313;82;21183;-58
2021/03/31 03:25:22;;;;;;;9.40;5.08;;;;;;;22.15;46.77;102052.62;1698890;82;21194;-58
2021/03/31 03:27:49;;;;;;;9.00;4.78;;;;;;;22.14;46.78;102056.55;1694573;82;21652;-58
2021/03/31 03:30:17;;;;;;;6.83;4.83;;;;;;;22.16;46.81;102050.69;1695089;82;21171;-56
2021/03/31 03:32:46;;;;;;;6.17;5.03;;;;;;;22.16;46.82;102050.69;1704603;82;21203;-59
2021/03/31 03:35:14;;;;;;;7.90;5.25;;;;;;;22.18;46.81;102049.84;1697442;82;21263;-58
2021/03/31 03:37:46;;;;;;;6.58;4.75;;;;;;;22.20;46.78;102049.80;1697023;82;21176;-58
2021/03/31 03:40:13;;;;;;;7.47;4.95;;;;;;;22.20;46.77;102045.64;1696128;82;21220;-59
2021/03/31 03:42:40;;;;;;;7.65;4.92;;;;;;;22.22;46.76;102042.58;1697081;82;21191;-59
2021/03/31 03:45:08;;;;;;;10.05;6.17;;;;;;;22.23;46.77;102038.69;1685662;82;21545;-57
2021/03/31 03:47:35;;;;;;;8.20;5.33;;;;;;;22.23;46.74;102038.12;1701026;82;21242;-58
2021/03/31 03:50:02;;;;;;;15.13;7.90;;;;;;;22.24;46.72;102042.52;1698300;82;21190;-58
2021/03/31 03:52:28;;;;;;;12.37;6.55;;;;;;;22.25;46.74;102046.95;1698617;82;21239;-58
2021/03/31 03:54:56;;;;;;;9.88;5.25;;;;;;;22.25;46.72;102041.97;1701627;82;21181;-58
2021/03/31 03:57:25;;;;;;;7.75;5.33;;;;;;;22.23;46.72;102040.91;1699057;82;21630;-58
2021/03/31 03:59:53;;;;;;;10.63;5.60;;;;;;;22.25;46.71;102045.57;1696687;82;21214;-58
2021/03/31 04:02:19;;;;;;;9.28;5.60;;;;;;;22.25;46.71;102048.34;1699615;82;21218;-58
2021/03/31 04:04:46;;;;;;;30.75;12.75;;;;;;;22.26;46.71;102049.17;1707489;82;21225;-59
2021/03/31 04:07:12;;;;;;;27.40;10.20;;;;;;;22.26;46.69;102040.85;1698785;82;21157;-58
2021/03/31 04:09:43;;;;;;;8.60;5.10;;;;;;;;;;1697166;82;21161;-57
2021/03/31 04:12:10;;;;;;;8.08;4.92;;;;;;;22.27;46.69;102045.28;1676007;82;21587;-58
2021/03/31 04:14:38;;;;;;;6.65;5.08;;;;;;;22.28;46.68;102050.51;1675888;82;21189;-57
2021/03/31 04:17:06;;;;;;;8.23;5.42;;;;;;;22.29;46.66;102048.56;1702722;82;21549;-57
2021/03/31 04:19:33;;;;;;;15.08;7.10;;;;;;;22.29;46.67;102049.39;1702897;82;21632;-58
2021/03/31 04:22:00;;;;;;;88.67;24.50;;;;;;;22.29;46.66;102043.02;1676607;82;21548;-58
2021/03/31 04:24:26;;;;;;;26.65;10.25;;;;;;;22.30;46.62;102044.67;1715336;82;21221;-58
2021/03/31 04:26:53;;;;;;;7.15;4.75;;;;;;;22.29;46.63;102042.46;1703296;82;21263;-58
2021/03/31 04:29:19;;;;;;;8.43;5.58;;;;;;;22.31;46.61;102046.33;1707418;82;21513;-58
2021/03/31 04:31:46;;;;;;;15.98;7.33;;;;;;;22.31;46.59;102044.39;1706223;82;21189;-58
2021/03/31 04:34:12;;;;;;;6.58;4.72;;;;;;;22.31;46.56;102044.39;1707399;82;21197;-58
2021/03/31 04:36:39;;;;;;;7.25;5.00;;;;;;;22.34;46.55;102047.11;1676719;82;22157;-58
2021/03/31 04:39:06;;;;;;;6.83;4.62;;;;;;;22.34;46.49;102051.27;1679083;82;21517;-58
2021/03/31 04:41:33;;;;;;;10.72;5.53;;;;;;;22.35;46.48;102051.54;1706838;82;21180;-58
2021/03/31 04:44:01;;;;;;;15.68;6.80;;;;;;;22.36;46.43;102043.48;1708207;82;21150;-58
2021/03/31 04:46:27;;;;;;;8.73;5.08;;;;;;;22.38;46.41;102048.72;1703377;82;21234;-58
2021/03/31 04:48:53;;;;;;;6.90;4.85;;;;;;;22.38;46.37;102050.93;1705027;82;21208;-58
2021/03/31 04:51:20;;;;;;;18.60;7.33;;;;;;;22.40;46.39;102057.58;1710632;82;21161;-58
2021/03/31 04:53:46;;;;;;;17.25;6.90;;;;;;;22.39;46.33;102056.74;1669035;84;21535;-58
2021/03/31 04:56:13;;;;;;;7.22;4.62;;;;;;;22.40;46.33;102056.19;1668678;84;21616;-58
2021/03/31 04:58:40;;;;;;;6.03;4.25;;;;;;;22.41;46.27;102057.25;1668840;84;21178;-58
2021/03/31 05:01:07;;;;;;;6.53;4.17;;;;;;;22.42;46.27;102060.30;1671097;84;21631;-59
2021/03/31 05:03:33;;;;;;;5.60;4.17;;;;;;;22.43;46.23;102052.80;1668794;84;21178;-59
2021/03/31 05:06:00;;;;;;;6.53;4.65;;;;;;;22.43;46.20;102060.56;1669174;84;21144;-60
2021/03/31 05:08:27;;;;;;;6.30;4.60;;;;;;;22.43;46.18;102052.25;1666070;84;21252;-59
2021/03/31 05:10:53;;;;;;;6.70;4.40;;;;;;;22.42;46.16;102056.14;1662841;84;21562;-59
2021/03/31 05:13:20;;;;;;;6.22;4.55;;;;;;;22.42;46.12;102056.70;1666163;84;21640;-59
2021/03/31 05:15:46;;;;;;;7.03;4.42;;;;;;;22.42;46.09;102054.75;1667177;84;21534;-59
2021/03/31 05:18:13;;;;;;;6.55;4.83;;;;;;;22.42;46.09;102053.36;1665615;84;21217;-60
2021/03/31 05:20:40;;;;;;;6.28;4.45;;;;;;;22.42;46.05;102056.70;1670911;84;21273;-59
2021/03/31 05:23:06;;;;;;;7.83;4.62;;;;;;;22.42;46.03;102059.47;1667638;84;21630;-59
2021/03/31 05:25:33;;;;;;;6.78;4.90;;;;;;;22.41;46.04;102053.66;1670287;84;21715;-60
2021/03/31 05:28:00;;;;;;;7.78;5.08;;;;;;;22.42;46.02;102056.14;1667620;84;21158;-58
2021/03/31 05:30:27;;;;;;;10.00;5.58;;;;;;;22.42;45.98;102047.81;1666323;84;21584;-58
2021/03/31 05:32:53;;;;;;;8.10;5.22;;;;;;;22.42;45.93;102042.27;1678022;83;21211;-58
2021/03/31 05:35:20;;;;;;;19.57;8.60;;;;;;;22.43;45.91;102048.09;1669966;83;21264;-59
2021/03/31 05:37:47;;;;;;;11.45;6.53;;;;;;;22.43;45.86;102043.09;1671806;83;21443;-59
2021/03/31 05:40:14;;;;;;;9.68;5.65;;;;;;;22.43;45.82;102048.09;1667204;83;21205;-59
2021/03/31 05:42:40;;;;;;;90.25;34.83;;;;;;;22.43;45.77;102053.63;1667226;84;21252;-59
2021/03/31 05:45:09;;;;;;;14.13;7.62;;;;;;;22.43;45.72;102039.77;1668178;83;21177;-59
2021/03/31 05:47:42;;;;;;;10.55;5.78;;;;;;;22.42;45.68;102046.43;1674178;84;21217;-60
2021/03/31 05:50:12;;;;;;;9.88;5.67;;;;;;;22.42;45.57;102046.98;1657108;84;22114;-60
2021/03/31 05:52:39;;;;;;;7.62;5.22;;;;;;;22.41;45.45;102046.16;1692543;81;21222;-61
2021/03/31 05:55:08;;;;;;;8.38;5.10;;;;;;;22.42;45.37;102045.60;1720980;81;21197;-60
2021/03/31 05:57:36;;;;;;;8.25;4.78;;;;;;;22.40;45.26;102047.31;1706066;82;21225;-61
2021/03/31 06:00:18;;;;;;;8.08;5.47;;;;;;;22.40;45.19;102047.31;1718794;81;21189;-59
2021/03/31 06:02:46;;;;;;;8.55;5.22;;;;;;;22.40;45.09;102045.92;1687377;83;21416;-59
2021/03/31 06:05:16;;;;;;;8.10;5.20;;;;;;;22.40;44.98;102047.31;1703532;82;21193;-59
2021/03/31 06:07:44;;;;;;;6.33;4.92;;;;;;;22.39;44.90;102044.27;1697451;82;21194;-59
2021/03/31 06:10:22;;;;;;;9.23;5.05;;;;;;;22.39;44.80;102035.12;1704315;82;21171;-59
2021/03/31 06:13:02;;;;;;;7.72;4.53;;;;;;;22.37;44.71;102042.90;1699214;82;21203;-60
2021/03/31 06:15:43;;;;;;;8.47;5.00;;;;;;;22.36;44.63;102036.56;1712753;82;21247;-59
2021/03/31 06:18:14;;;;;;;;;;;;;;;22.34;44.52;102027.70;1722943;82;21230;-61
2021/03/31 06:21:04;;;;;;;7.80;4.40;;;;;;;22.32;44.43;102029.94;1718572;81;20345;-60
2021/03/31 06:23:53;;;;;;;8.23;5.40;;;;;;;22.31;44.41;102032.47;1693030;83;21624;-58
2021/03/31 06:26:36;;;;;;;6.17;4.95;;;;;;;22.18;43.62;102033.20;1714881;81;22361;-60
2021/03/31 06:29:05;;;;;;;6.40;4.70;;;;;;;22.14;43.65;102036.31;1715120;81;21215;-60
2021/03/31 06:31:34;;;;;;;6.92;4.72;;;;;;;22.13;43.65;102029.95;1707317;82;21215;-60
2021/03/31 06:34:09;;;;;;;7.25;4.72;;;;;;;22.12;43.62;102029.67;1715479;81;21417;-59
2021/03/31 06:36:42;;;;;;;7.03;4.87;;;;;;;22.13;43.53;102030.50;1721011;81;21230;-60
2021/03/31 06:39:37;;;;;;;5.55;4.25;;;;;;;22.12;43.44;102033.00;1692495;83;21200;-60
2021/03/31 06:42:11;;;;;;;7.53;4.75;;;;;;;22.12;43.33;102032.45;1706162;82;21300;-61
2021/03/31 06:47:36;;;;;;;7.35;4.87;;;;;;;22.15;43.14;102028.27;1756223;80;21188;-59
2021/03/31 06:50:03;;;;;;;6.12;4.72;;;;;;;22.15;43.01;102029.06;1749148;80;21184;-59
2021/03/31 06:52:30;;;;;;;8.03;5.20;;;;;;;22.16;42.87;102025.73;1747075;80;21174;-59
2021/03/31 06:55:02;;;;;;;40.98;14.65;;;;;;;22.16;42.75;102025.73;1756099;80;21242;-59
2021/03/31 06:57:33;;;;;;;14.47;7.58;;;;;;;22.17;42.68;102028.78;1746768;80;21476;-59
2021/03/31 07:00:11;;;;;;;9.53;5.17;;;;;;;22.17;42.63;102021.30;1750360;80;21207;-58
2021/03/31 07:02:39;;;;;;;7.35;5.00;;;;;;;22.17;42.48;102021.30;1750540;80;21454;-60
2021/03/31 07:05:08;;;;;;;6.92;4.25;;;;;;;22.18;42.47;102020.18;1746749;80;21654;-60
2021/03/31 07:07:37;;;;;;;9.48;4.97;;;;;;;22.19;42.42;102023.78;1753577;80;21193;-59
2021/03/31 07:10:16;;;;;;;18.85;9.23;;;;;;;22.21;42.39;102021.52;1746814;80;21599;-60
2021/03/31 07:12:50;;;;;;;9.00;4.95;;;;;;;22.23;42.32;102022.05;1746788;80;21088;-59
2021/03/31 07:15:24;;;;;;;6.53;4.30;;;;;;;22.24;42.25;102020.91;1762461;80;21164;-59
2021/03/31 07:17:55;;;;;;;6.67;4.15;;;;;;;22.24;42.22;102012.03;1757561;80;21207;-61
2021/03/31 07:20:23;;;;;;;12.07;4.53;;;;;;;22.25;42.14;102015.08;1734342;81;21205;-59
2021/03/31 07:22:49;;;;;;;5.97;4.20;;;;;;;22.27;42.09;102010.63;1711332;81;21144;-60
2021/03/31 07:25:16;;;;;;;7.55;4.40;;;;;;;22.29;42.08;102019.45;1736373;81;21221;-60
2021/03/31 07:27:46;;;;;;;10.63;5.40;;;;;;;22.28;42.04;102017.23;1739181;81;21160;-60
2021/03/31 07:30:17;;;;;;;6.78;4.33;;;;;;;22.28;42.01;102008.92;1741606;81;21155;-59
2021/03/31 07:32:56;;;;;;;6.15;4.45;;;;;;;22.27;42.00;102010.63;1735360;81;22216;-60
2021/03/31 07:35:33;;;;;;;9.60;4.55;;;;;;;22.26;41.96;102008.41;1733842;81;21484;-60
2021/03/31 07:38:03;;;;;;;8.73;4.95;;;;;;;22.26;41.95;102010.36;1735212;81;21195;-59
2021/03/31 07:40:33;;;;;;;6.03;4.28;;;;;;;22.25;41.94;102012.30;1739454;81;21116;-59
2021/03/31 07:43:13;;;;;;;5.75;4.33;;;;;;;22.25;41.92;102005.93;1736978;81;21335;-59
2021/03/31 07:45:55;;;;;;;5.37;4.17;;;;;;;22.24;41.90;102007.05;1731390;81;21196;-59
2021/03/31 07:48:22;;;;;;;6.60;4.55;;;;;;;22.24;41.91;102008.43;1726800;81;21124;-59
2021/03/31 07:50:48;;;;;;;5.85;4.15;;;;;;;22.21;41.89;102003.50;1736461;81;21184;-59
2021/03/31 07:53:15;;;;;;;6.92;4.47;;;;;;;22.22;41.89;102002.38;1730254;81;21201;-59
2021/03/31 07:55:48;;;;;;;7.40;4.42;;;;;;;22.20;41.90;102002.67;1730136;81;21121;-59
2021/03/31 07:58:18;;;;;;;4.30;3.90;;;;;;;22.19;41.87;101998.83;1674919;84;21385;-59
2021/03/31 08:00:54;;;;;;;6.28;4.47;;;;;;;22.18;41.85;101991.63;1702565;82;21438;-59
2021/03/31 08:03:28;;;;;;;7.20;4.40;;;;;;;22.16;41.85;101993.30;1703973;82;21203;-59
2021/03/31 08:06:11;;;;;;;5.35;3.85;;;;;;;22.17;41.83;101998.30;1758632;80;21117;-60
2021/03/31 08:08:52;;;;;;;4.70;3.58;;;;;;;22.14;41.83;101992.80;1736369;81;21137;-59
2021/03/31 08:11:43;;;;;;;7.05;3.70;;;;;;;22.14;41.83;101993.36;1730663;81;21463;-59
2021/03/31 08:14:14;;;;;;;5.22;3.92;;;;;;;22.12;41.82;101990.05;1728089;81;21643;-60
2021/03/31 08:16:50;;;;;;;4.50;3.83;;;;;;;22.16;41.81;101985.55;1837462;76;22810;-59
2021/03/31 08:19:19;;;;;;;5.60;3.90;;;;;;;22.10;41.84;101984.82;1811027;77;21409;-59
2021/03/31 08:21:49;;;;;;;6.10;3.90;;;;;;;22.09;41.81;101982.34;1805665;77;21004;-59
2021/03/31 08:24:16;;;;;;;5.70;3.92;;;;;;;22.09;41.83;101979.56;1811962;77;21541;-59
2021/03/31 08:26:48;;;;;;;6.00;3.80;;;;;;;22.08;41.82;101973.75;1812052;77;21397;-58
2021/03/31 08:29:25;;;;;;;5.65;3.92;;;;;;;22.05;41.83;101971.03;1814214;77;21194;-59
2021/03/31 08:32:06;;;;;;;6.50;3.90;;;;;;;22.05;41.81;101972.42;1814073;77;21419;-60
2021/03/31 08:34:34;;;;;;;5.80;3.90;;;;;;;22.04;41.81;101976.30;1751107;81;22163;-59
2021/03/31 08:37:03;;;;;;;6.05;3.98;;;;;;;22.04;41.81;101968.55;1754909;79;21578;-59
2021/03/31 08:39:29;;;;;;;5.37;3.75;;;;;;;22.02;41.85;101965.27;1808988;77;21033;-60
2021/03/31 08:41:57;;;;;;;5.58;4.05;;;;;;;22.01;41.84;101961.67;1810234;77;21083;-60
2021/03/31 08:44:33;;;;;;;5.00;3.60;;;;;;;21.99;41.83;101954.20;1802936;77;21169;-59
2021/03/31 08:47:17;;;;;;;5.12;3.98;;;;;;;21.98;41.83;101948.98;1778491;79;21350;-60
2021/03/31 08:49:46;;;;;;;7.45;3.90;;;;;;;21.95;41.85;101948.17;1802262;77;21556;-60
2021/03/31 08:52:14;;;;;;;5.78;3.80;;;;;;;21.94;41.84;101945.16;1804424;77;21095;-58
2021/03/31 08:54:51;;;;;;;4.15;3.47;;;;;;;21.92;41.81;101937.14;1807142;77;21020;-60
2021/03/31 08:57:21;;;;;;;5.10;4.08;;;;;;;21.91;41.82;101935.45;1793837;77;21116;-60
2021/03/31 08:59:51;;;;;;;7.87;4.50;;;;;;;21.90;41.82;101935.77;1809803;77;21287;-59
2021/03/31 09:02:20;;;;;;;4.42;3.72;;;;;;;21.90;41.81;101937.16;1747257;80;21441;-58
2021/03/31 09:04:50;;;;;;;5.05;3.92;;;;;;;21.87;41.82;101931.08;1760440;79;21170;-58
2021/03/31 09:07:17;;;;;;;5.67;4.10;;;;;;;21.87;41.84;101926.09;1745586;80;21170;-58
2021/03/31 09:09:45;;;;;;;4.17;3.55;;;;;;;21.86;41.82;101919.72;1757315;79;21128;-59
2021/03/31 09:12:17;;;;;;;5.62;4.00;;;;;;;21.85;41.82;101918.06;1809155;77;21462;-58
2021/03/31 09:14:47;;;;;;;5.25;3.83;;;;;;;21.84;41.82;101923.38;1804087;77;21154;-59
2021/03/31 09:17:23;;;;;;;4.80;3.67;;;;;;;21.83;41.83;101920.33;1746396;80;21581;-59
2021/03/31 09:19:57;;;;;;;6.03;3.83;;;;;;;21.83;41.80;101911.19;1744949;80;21596;-59
2021/03/31 09:22:27;;;;;;;5.22;3.72;;;;;;;21.81;41.80;101910.69;1762972;79;21212;-59
2021/03/31 09:25:03;;;;;;;5.17;3.40;;;;;;;21.80;41.80;101908.47;1806487;77;21257;-59
2021/03/31 09:27:34;;;;;;;5.55;3.70;;;;;;;21.79;41.80;101905.98;1810957;77;21187;-58
2021/03/31 09:30:06;;;;;;;5.08;3.37;;;;;;;21.78;41.80;101902.39;1808455;78;21142;-59
2021/03/31 09:32:38;;;;;;;6.10;3.65;;;;;;;21.77;41.80;101894.37;1807196;77;21138;-59
2021/03/31 09:35:13;;;;;;;4.85;3.77;;;;;;;21.77;41.79;101893.81;1809415;77;21156;-59
2021/03/31 09:37:46;;;;;;;4.45;3.42;;;;;;;21.76;41.81;101889.42;1798177;77;21603;-58
2021/03/31 09:40:28;;;;;;;5.30;4.12;;;;;;;21.76;41.79;101885.27;1807145;77;21174;-59
2021/03/31 09:43:02;;;;;;;4.95;3.52;;;;;;;21.76;41.77;101880.28;1806201;77;21164;-59
2021/03/31 09:45:31;;;;;;;4.30;3.72;;;;;;;21.75;41.77;101877.24;1806164;77;21170;-59
2021/03/31 09:47:58;;;;;;;4.65;3.67;;;;;;;21.75;41.76;101876.68;1806619;77;21075;-59
2021/03/31 09:50:27;;;;;;;5.08;3.83;;;;;;;21.75;41.76;101878.06;1804178;77;21254;-59
2021/03/31 09:52:55;;;;;;;4.37;3.55;;;;;;;21.77;41.75;101872.20;1801389;77;21047;-58
2021/03/31 09:55:22;;;;;;;6.22;3.60;;;;;;;21.79;41.75;101871.36;1808783;77;21450;-59
2021/03/31 09:57:50;;;;;;;6.47;3.60;;;;;;;21.80;41.74;101872.45;1800838;77;21519;-59
2021/03/31 10:00:18;;;;;;;4.55;3.10;;;;;;;21.83;41.75;101866.31;1747939;80;21160;-59
2021/03/31 10:02:45;;;;;;;4.83;3.08;;;;;;;21.85;41.75;101850.78;1777840;79;22099;-59
2021/03/31 10:05:18;;;;;;;4.42;3.77;;;;;;;21.88;41.75;101855.16;1773499;79;21206;-59
2021/03/31 10:07:42;;;;;;;4.40;3.22;;;;;;;21.91;41.74;101848.17;1748841;80;21210;-59
2021/03/31 10:10:11;;;;;;;4.40;3.52;;;;;;;21.95;41.73;101853.41;1731590;81;21491;-59
2021/03/31 10:12:37;;;;;;;4.67;3.62;;;;;;;22.00;41.71;101844.19;1754631;79;21175;-59
2021/03/31 10:15:08;;;;;;;4.60;3.52;;;;;;;22.03;41.71;101836.64;1759126;79;21604;-59
2021/03/31 10:17:34;;;;;;;4.62;3.42;;;;;;;22.07;41.69;101837.13;1764665;79;21392;-59
2021/03/31 10:20:17;;;;;;;8.73;5.30;;;;;;;22.11;41.65;101830.41;1738097;79;21180;-59
2021/03/31 10:22:51;;;;;;;3.75;2.95;;;;;;;22.14;41.63;101822.89;1760933;79;21147;-59
2021/03/31 10:25:29;;;;;;;6.12;3.35;;;;;;;22.16;41.61;101820.06;1770310;79;21131;-59
2021/03/31 10:27:58;;;;;;;4.00;2.98;;;;;;;22.19;41.58;101814.50;1769663;80;21263;-59
2021/03/31 10:30:28;;;;;;;4.25;3.45;;;;;;;22.22;41.57;101808.34;1760674;79;21048;-59
2021/03/31 10:32:55;;;;;;;4.90;3.25;;;;;;;22.25;41.54;101803.56;1766790;80;21205;-59
2021/03/31 10:35:53;;;;;;;4.03;2.98;;;;;;;22.29;41.54;101801.82;1770118;79;21253;-60
2021/03/31 10:38:35;;;;;;;4.50;3.10;;;;;;;22.31;41.53;101794.03;1765437;79;21201;-60
2021/03/31 10:41:41;;;;;;;5.70;3.22;;;;;;;22.34;41.49;101794.80;1762618;79;21281;-60
2021/03/31 10:49:31;;;;;;;4.12;3.10;;;;;;;22.39;41.45;101782.23;1768597;80;21660;-60
2021/03/31 10:51:54;;;;;;;4.33;3.15;;;;;;;22.40;41.45;101776.95;1757927;79;21084;-60
2021/03/31 10:54:16;;;;;;;4.60;3.60;;;;;;;22.42;41.43;101769.14;1765954;79;21187;-60
2021/03/31 10:57:06;;;;;;;3.62;3.02;;;;;;;22.43;41.43;101765.24;1741166;81;21174;-60
2021/03/31 10:59:11;;;;;;;3.70;2.70;;;;;;;22.46;41.43;101761.02;1751769;79;21196;-60
2021/03/31 11:01:37;;;;;;;5.42;3.10;;;;;;;22.48;41.41;101760.16;1768671;79;21220;-59
2021/03/31 11:04:05;;;;;;;3.50;2.90;;;;;;;22.50;41.40;101762.88;1767925;79;21158;-60
2021/03/31 11:06:32;;;;;;;3.92;3.02;;;;;;;22.54;41.39;101756.14;1769157;79;21234;-59
2021/03/31 11:08:59;;;;;;;4.53;3.47;;;;;;;22.55;41.34;101757.80;1767355;79;21119;-60
2021/03/31 11:11:26;;;;;;;3.92;3.15;;;;;;;22.55;41.34;101755.84;1769126;79;21057;-59
2021/03/31 11:13:52;;;;;;;4.58;3.47;;;;;;;22.56;41.34;101752.52;1770919;79;21167;-60
2021/03/31 11:16:19;;;;;;;4.58;3.62;;;;;;;22.57;41.32;101753.60;1767423;79;21134;-59
2021/03/31 11:26:41;;;;;;;5.20;3.37;;;;;;;22.63;41.25;101733.50;1750021;80;21177;-59
2021/03/31 11:29:08;;;;;;;4.25;3.17;;;;;;;22.63;41.23;101729.34;1760858;79;21139;-60
2021/03/31 11:31:35;;;;;;;4.28;3.33;;;;;;;22.64;41.19;101727.65;1805783;77;23539;-60
2021/03/31 11:34:02;;;;;;;4.22;2.83;;;;;;;22.66;41.19;101725.37;1748264;80;21016;-59
2021/03/31 11:36:28;;;;;;;4.58;3.65;;;;;;;22.67;41.17;101715.92;1746718;80;21529;-60
2021/03/31 11:38:55;;;;;;;4.60;3.25;;;;;;;22.68;41.13;101712.03;1759580;79;21138;-60
2021/03/31 11:41:21;;;;;;;4.35;3.12;;;;;;;22.68;41.10;101710.64;1809214;77;21225;-60
2021/03/31 11:43:48;;;;;;;4.35;3.05;;;;;;;22.69;41.09;101705.95;1807068;77;21150;-59
2021/03/31 11:46:14;;;;;;;4.80;3.70;;;;;;;22.72;41.08;101703.38;1810942;77;21450;-59
2021/03/31 11:48:41;;;;;;;4.15;3.40;;;;;;;22.72;41.05;101703.38;1749896;80;21438;-59
2021/03/31 11:51:07;;;;;;;5.12;3.58;;;;;;;22.72;41.05;101700.59;1748790;80;21144;-59
2021/03/31 11:53:34;;;;;;;4.00;3.30;;;;;;;22.74;41.04;101694.75;1761632;79;21199;-59